Hauptseite
METAR-TAF:

METAR-TAF

Flughäfen :

Flughafen Rom-Fiumicino

Rom-Fiumicino, Italien

Breite: 41-48N, Länge: 012-14E, Höhe: 2 m

Beobachtung

Neuester Wetterbericht von vor 25 Minuten, um 04:20 UTC
Wind 7 kt aus Nordost
Temperatur 7°C
Luftfeuchtigkeit 70%
Luftdruck 1029 hPa
Sichtweite 10 km oder mehr
keine Wolken unter 1500 m und keine Kumulonimbus oder Gewitterwolken

METAR: LIRF 200420Z 04007KT CAVOK 07/02 Q1029 NOSIG

Zeit: 05:45 (04:45 UTC)

Prognose

Neuester Wetterbericht von vor 5 Stunden und 45 Minuten, um 23:00 UTC
Gültige Prognose vom 20 um 00 UTC bis 21 um 06 UTC
Wind 12 kt aus Ost/Nordost
Sichtweite 10 km oder mehr
keine Wolken unter 1500 m und keine Kumulonimbus oder Gewitterwolken

TAF: LIRF 192300Z 2000/2106 06012KT CAVOK

Wetterbeobachtungen und Prognosen von mehr als 4000 Flughäfen (METAR und TAF Bericht).

Die verfügbaren Stationen werden durch gelbe und rote Markierungen auf der Karte dargestellt.

Führen Sie die Maus auf sie, um den Namen der Station zu sehen.

Darauf klicken, um die Beobachtung von Wetterbeobachtungen und Prognosen zu sehen.

Um die Karte zu ändern : klicken Sie auf den grünen Tasten mit einem schwarzen Kreuz Zum Vergrößern, auf den grünen Button mit einem Gedankenstrich zu verkleinern, oder auf die grünen Pfeile für benachbarte Karten.


METAR-TAF: